Texline, Texas
Current Conditions -  °F | °C
As of 6:55 PM on Monday 26 Jan 2015 (Local Time) from KCAO Reporting Station
Clear Clear  
Wind Chill:   Ceiling: Unl
Heat Index:   Visibility: 10mi
Dew Point: -1°   Wind: 5mph
Humidity: 54%   Direction: 280°W
Pressure: 30.26"   Gusts: NA
Location:  36.38°N, 103.02°W
Report Text: KCAO 270055Z AUTO 28004KT 10SM CLR 08/M01 A3026 RMK AO2 SLP234 T00831006
Loading
Personal Weather Stations






























Interactive Weather Map New forecast layout! Learn more

10-Day Weather Forecast

Advertisements
Track Severe Weather on mobile